Latest Weather Observations for Bairnsdale

IDV60801

Issued at 11:05 am EST Thursday 31 July 2014 (issued every 30 minutes, with the page automatically refreshed every 10 minutes)

About weather observations | Map of weather stations | Latest weather observations for VIC | Other Formats
Station Details ID: 085279 Name: BAIRNSDALE AIRPORT Lat: -37.88 Lon: 147.57 Height: 49.4 m
Data from the previous 72 hours. | See also: Recent months at Bairnsdale
Date/Time
EST
Temp
°C
App
Temp
°C
Dew
Point
Rel
Hum
%
Delta-T
°C
Wind Press
QNH
hPa
Press
MSL
hPa
Rain
since 9 am
mm
Dir
 
Spd
km/h
Gust
km/h
Spd
kts
Gust
kts
31/11:00am 19.3 9.5 3.5 35 7.5 NNW 44 69 24 37 997.9 - 0.0
31/10:33am 19.0 9.9 4.0 37 7.2 NNW 41 67 22 36 998.9 - 0.0
31/10:30am 19.0 9.6 4.4 38 7.0 NNW 43 56 23 30 999.1 - 0.0
31/10:00am 18.7 10.1 4.5 39 6.8 NW 39 67 21 36 999.7 - 0.0
31/09:30am 18.4 10.5 4.6 40 6.6 NNW 35 56 19 30 1000.1 - 0.0
31/09:00am 18.1 8.6 4.7 41 6.5 NW 44 65 24 35 1000.6 1000.7 0.0
31/08:30am 17.4 9.0 5.4 45 5.8 NW 39 61 21 33 1000.9 - 0.0
31/08:00am 17.0 7.8 5.3 46 5.6 NNW 43 67 23 36 1001.1 - 0.0
31/07:46am 16.6 7.4 5.3 47 5.4 NNW 43 61 23 33 1001.3 - 0.0
31/07:30am 16.4 6.6 5.4 48 5.3 NNW 46 61 25 33 1001.1 - 0.0
31/07:01am 16.4 8.0 5.4 48 5.3 NNW 39 59 21 32 1001.9 - 0.0
31/07:00am 16.3 7.8 5.3 48 5.3 NNW 39 54 21 29 1001.8 - 0.0
31/06:48am 16.4 8.3 5.4 48 5.3 NNW 37 56 20 30 1002.3 - 0.0
31/06:30am 16.3 8.2 5.3 48 5.3 NNW 37 50 20 27 1002.6 - 0.0
31/06:04am 16.0 8.9 5.3 49 5.1 NNW 32 50 17 27 1002.8 - 0.0
31/06:00am 16.2 9.1 5.5 49 5.2 NNW 32 43 17 23 1002.8 1002.9 0.0
31/05:40am 16.1 9.7 5.4 49 5.1 NNW 28 46 15 25 1003.0 - 0.0
31/05:30am 16.3 9.6 5.6 49 5.2 NNW 30 41 16 22 1003.1 - 0.0
31/05:00am 16.1 9.7 5.4 49 5.1 NW 28 39 15 21 1003.6 - 0.0
31/04:30am 15.9 9.8 4.9 48 5.2 NW 26 37 14 20 1003.6 - 0.0
31/04:00am 15.4 9.7 4.8 49 5.0 NNW 24 33 13 18 1004.1 - 0.0
31/03:30am 15.4 10.1 4.8 49 5.0 NNW 22 32 12 17 1004.7 - 0.0
31/03:00am 15.4 10.1 4.8 49 5.0 NNW 22 32 12 17 1005.2 1005.3 0.0
31/02:30am 15.0 10.3 5.2 52 4.6 NNW 19 28 10 15 1005.8 - 0.0
31/02:00am 14.9 10.0 4.3 49 4.9 N 19 24 10 13 1006.3 - 0.0
31/01:30am 14.1 9.6 4.4 52 4.5 NNW 17 22 9 12 1006.8 - 0.0
31/01:00am 13.2 9.1 4.4 55 4.0 NNW 15 20 8 11 1007.4 - 0.0
31/12:30am 9.8 7.0 3.3 64 2.8 WNW 7 9 4 5 1007.6 - 0.0
31/12:00am 12.7 9.4 4.7 58 3.7 WNW 11 15 6 8 1007.8 1007.9 0.0
 
Date/Time
EST
Temp
°C
App
Temp
°C
Dew
Point
Rel
Hum
%
Delta-T
°C
Wind Press
QNH
hPa
Press
MSL
hPa
Rain
since 9 am
mm
Dir
 
Spd
km/h
Gust
km/h
Spd
kts
Gust
kts
30/11:30pm 13.1 9.2 5.3 59 3.6 WNW 15 19 8 10 1008.0 - 0.0
30/11:00pm 13.7 9.4 5.1 56 4.0 NW 17 24 9 13 1008.1 - 0.0
30/10:30pm 15.6 10.1 5.8 52 4.7 NNW 24 35 13 19 1008.1 - 0.0
30/10:00pm 15.6 10.2 6.3 54 4.5 NNW 24 32 13 17 1008.0 - 0.0
30/09:30pm 15.5 10.2 6.8 56 4.3 NNW 24 32 13 17 1007.9 - 0.0
30/09:00pm 15.3 10.7 6.6 56 4.3 NNW 20 28 11 15 1008.0 1008.1 0.0
30/08:30pm 14.8 10.9 6.9 59 3.9 NNW 17 22 9 12 1008.3 - 0.0
30/08:00pm 13.9 11.1 7.0 63 3.4 NNW 11 15 6 8 1008.8 - 0.0
30/07:30pm 13.6 10.4 6.7 63 3.3 NNW 13 17 7 9 1009.0 - 0.0
30/07:00pm 14.5 10.5 6.8 60 3.8 NNW 17 22 9 12 1008.8 - 0.0
30/06:30pm 15.0 11.6 7.5 61 3.7 NW 15 20 8 11 1009.1 - 0.0
30/06:00pm 15.4 11.0 7.4 59 4.0 NW 20 28 11 15 1009.0 1009.1 0.0
30/05:30pm 16.1 11.4 7.8 58 4.2 NW 22 32 12 17 1008.6 - 0.0
30/05:00pm 16.5 11.5 8.0 57 4.3 NW 24 33 13 18 1008.4 - 0.0
30/04:30pm 17.4 11.7 8.3 55 4.7 NNW 28 41 15 22 1008.2 - 0.0
30/04:00pm 18.6 14.5 8.6 52 5.2 NNW 20 32 11 17 1008.1 - 0.0
30/03:30pm 18.9 13.1 8.0 49 5.6 NNW 28 39 15 21 1008.2 - 0.0
30/03:00pm 19.9 15.5 8.9 49 5.8 NNW 22 32 12 17 1008.3 1008.4 0.0
30/02:30pm 20.2 16.2 9.2 49 5.8 NW 20 28 11 15 1008.4 - 0.0
30/02:00pm 20.2 14.1 6.5 41 6.9 WNW 28 37 15 20 1008.7 - 0.0
30/01:31pm 20.5 14.4 6.4 40 7.1 WNW 28 48 15 26 1008.7 - 0.0
30/01:30pm 20.6 14.6 6.9 41 7.0 WNW 28 41 15 22 1008.7 - 0.0
30/01:00pm 20.5 14.5 7.2 42 6.8 W 28 44 15 24 1009.3 - 0.0
30/12:40pm 20.0 13.1 6.4 41 6.8 W 32 52 17 28 1009.5 - 0.0
30/12:30pm 20.1 13.3 6.8 42 6.7 W 32 43 17 23 1009.8 - 0.0
30/12:00pm 19.7 12.9 6.8 43 6.5 W 32 44 17 24 1010.3 1010.3 0.0
30/11:30am 19.5 13.7 6.3 42 6.6 W 26 43 14 23 1010.8 - 0.0
30/11:00am 19.2 12.7 6.7 44 6.3 WNW 30 50 16 27 1011.0 - 0.0
30/10:58am 19.1 13.0 6.6 44 6.3 WNW 28 50 15 27 1010.7 - 0.0
30/10:30am 18.5 14.7 9.0 54 5.0 NW 19 24 10 13 1011.0 - 0.0
30/10:00am 17.2 14.7 9.6 61 4.0 NNW 13 20 7 11 1011.0 - 0.0
30/09:30am 14.6 13.6 10.4 76 2.2 ESE 6 7 3 4 1011.2 - 0.0
30/09:00am 13.3 10.8 9.7 79 1.8 S 13 17 7 9 1011.3 1011.3 0.0
30/08:30am 13.4 10.3 8.9 74 2.3 SSW 15 20 8 11 1011.0 - 0.0
30/08:00am 11.2 8.8 7.1 76 2.0 NNW 9 9 5 5 1010.7 - 0.0
30/07:30am 11.9 8.3 6.8 71 2.4 NW 15 19 8 10 1010.4 - 0.0
30/07:00am 12.0 9.2 6.9 71 2.4 WNW 11 15 6 8 1010.4 - 0.0
30/06:30am 13.0 9.2 7.5 69 2.7 WNW 17 22 9 12 1010.1 - 0.0
30/06:00am 11.7 9.0 7.2 74 2.2 WNW 11 13 6 7 1010.0 1010.0 0.0
30/05:30am 12.4 9.4 7.7 73 2.3 W 13 17 7 9 1009.8 - 0.0
30/05:00am 13.4 9.7 7.8 69 2.8 W 17 20 9 11 1009.6 - 0.0
30/04:30am 13.1 9.6 7.3 68 2.8 NW 15 19 8 10 1009.2 - 0.0
30/04:00am 14.9 10.6 7.7 62 3.6 W 20 32 11 17 1008.9 - 0.0
30/03:30am 14.6 10.2 7.4 62 3.6 W 20 26 11 14 1009.0 - 0.0
30/03:00am 12.4 9.2 6.9 69 2.6 W 13 17 7 9 1009.1 1009.2 0.0
30/02:30am 12.4 9.3 7.3 71 2.5 WNW 13 15 7 8 1009.1 - 0.0
30/02:00am 13.2 9.8 7.6 69 2.7 NW 15 19 8 10 1008.8 - 0.0
30/01:30am 12.9 10.3 7.8 71 2.5 WNW 11 15 6 8 1008.6 - 0.0
30/01:00am 11.4 8.6 6.9 74 2.1 NW 11 13 6 7 1008.3 - 0.0
30/12:30am 11.8 8.9 6.7 71 2.4 NW 11 15 6 8 1008.2 - 0.0
30/12:00am 12.5 9.3 7.0 69 2.7 NW 13 19 7 10 1008.2 1008.3 0.0
 
Date/Time
EST
Temp
°C
App
Temp
°C
Dew
Point
Rel
Hum
%
Delta-T
°C
Wind Press
QNH
hPa
Press
MSL
hPa
Rain
since 9 am
mm
Dir
 
Spd
km/h
Gust
km/h
Spd
kts
Gust
kts
29/11:30pm 12.9 9.7 6.7 66 3.0 NW 13 17 7 9 1008.2 - 0.0
29/11:00pm 14.4 10.5 7.0 61 3.6 NW 17 22 9 12 1008.0 - 0.0
29/10:30pm 14.7 9.8 7.0 60 3.8 NW 22 37 12 20 1007.9 - 0.0
29/10:00pm 14.8 9.1 6.9 59 3.9 NNW 26 35 14 19 1007.6 - 0.0
29/09:30pm 15.3 9.2 6.6 56 4.2 NNW 28 35 15 19 1007.6 - 0.0
29/09:00pm 15.3 10.3 6.6 56 4.3 NNW 22 32 12 17 1007.5 1007.6 0.0
29/08:30pm 14.4 9.4 6.5 59 3.8 NNW 22 30 12 16 1007.8 - 0.0
29/08:00pm 14.9 9.2 6.5 57 4.1 NNW 26 35 14 19 1007.2 - 0.0
29/07:30pm 14.9 8.7 6.2 56 4.2 NNW 28 46 15 25 1006.8 - 0.0
29/07:28pm 14.9 8.7 6.2 56 4.2 NNW 28 46 15 25 1006.6 - 0.0
29/07:00pm 14.8 9.3 6.1 56 4.2 NW 24 35 13 19 1006.6 - 0.0
29/06:53pm 15.1 8.9 6.1 55 4.3 NW 28 46 15 25 1006.7 - 0.0
29/06:30pm 15.6 8.4 6.1 53 4.6 NW 33 48 18 26 1006.3 - 0.0
29/06:00pm 15.4 7.1 5.9 53 4.6 NNW 39 54 21 29 1005.4 1005.5 0.0
29/05:30pm 15.3 7.8 6.1 54 4.4 NNW 35 48 19 26 1005.4 - 0.0
29/05:00pm 15.4 8.5 6.4 55 4.4 NW 32 46 17 25 1005.8 - 0.0
29/04:30pm 15.4 9.3 6.4 55 4.4 NNW 28 41 15 22 1005.5 - 0.0
29/04:00pm 15.9 9.7 6.3 53 4.7 NNW 28 44 15 24 1005.3 - 0.0
29/03:30pm 16.1 10.0 6.5 53 4.7 NNW 28 41 15 22 1005.3 - 0.0
29/03:25pm 16.2 10.1 6.6 53 4.7 N 28 46 15 25 1005.3 - 0.0
29/03:00pm 16.1 9.6 6.3 52 4.8 NNW 30 44 16 24 1005.5 1005.6 0.0
29/02:48pm 16.6 10.0 6.1 50 5.1 NNW 30 48 16 26 1005.4 - 0.0
29/02:30pm 16.5 9.3 5.8 49 5.2 NNW 33 48 18 26 1005.3 - 0.0
29/02:01pm 16.9 9.8 5.5 47 5.5 NNW 32 52 17 28 1005.5 - 0.0
29/02:00pm 16.8 9.8 6.0 49 5.3 NNW 32 46 17 25 1005.5 - 0.0
29/01:30pm 17.3 9.7 5.6 46 5.7 NNW 35 50 19 27 1005.8 - 0.0
29/01:00pm 17.2 9.7 6.1 48 5.4 NNW 35 48 19 26 1006.3 - 0.0
29/12:30pm 16.8 9.1 5.4 47 5.5 NNW 35 48 19 26 1006.5 - 0.0
29/12:16pm 18.2 10.7 6.4 46 5.9 NNW 35 54 19 29 1006.8 - 0.0
29/12:00pm 17.9 9.5 5.8 45 5.9 NNW 39 56 21 30 1007.0 1007.1 0.0
29/11:41am 17.4 9.2 4.7 43 6.1 NNW 37 57 20 31 1007.1 - 0.0
29/11:30am 17.5 10.3 5.1 44 6.0 NNW 32 46 17 25 1006.8 - 0.0
29/11:00am 16.9 9.5 4.9 45 5.7 NNW 33 50 18 27 1007.1 - 0.0
29/10:30am 17.1 9.8 4.4 43 6.0 NNW 32 50 17 27 1008.3 - 0.0
29/10:21am 16.9 10.3 4.3 43 5.9 NNW 28 50 15 27 1008.3 - 0.0
29/10:00am 16.9 12.0 4.9 45 5.7 NNW 20 32 11 17 1008.9 - 0.0
29/09:30am 15.9 10.1 4.3 46 5.4 NW 24 39 13 21 1009.1 - 0.0
29/09:00am 13.8 8.7 3.9 51 4.5 NW 20 30 11 16 1008.8 1008.9 0.0
29/08:30am 13.8 9.2 3.6 50 4.6 NW 17 28 9 15 1008.9 - 0.0
29/08:00am 13.3 8.0 2.8 49 4.6 NW 20 30 11 16 1008.6 - 0.0
29/07:30am 13.0 7.6 2.3 48 4.7 NW 20 32 11 17 1008.5 - 0.0
29/07:00am 12.2 7.2 1.5 48 4.6 WNW 17 22 9 12 1008.7 - 0.0
29/06:30am 13.3 7.7 1.3 44 5.1 NW 20 28 11 15 1008.6 - 0.0
29/06:00am 13.9 7.9 0.9 41 5.6 NNW 22 35 12 19 1008.3 1008.4 0.0
29/05:30am 13.5 8.1 2.7 48 4.8 NNW 20 32 11 17 1008.3 - 0.0
29/05:00am 10.9 6.9 3.0 58 3.4 NW 13 17 7 9 1008.3 - 0.0
29/04:30am 11.4 7.3 2.4 54 3.9 NW 13 15 7 8 1008.7 - 0.0
29/04:00am 10.4 6.3 2.5 58 3.4 NW 13 17 7 9 1009.1 - 0.0
29/03:30am 11.0 7.3 2.6 56 3.6 NW 11 15 6 8 1009.1 - 0.0
29/03:00am 12.7 7.6 3.1 52 4.3 NNW 19 24 10 13 1009.3 1009.4 0.0
29/02:30am 13.5 8.3 3.8 52 4.4 NNW 20 32 11 17 1009.6 - 0.0
29/02:00am 13.5 8.0 4.1 53 4.3 NNW 22 32 12 17 1009.9 - 0.0
29/01:30am 13.4 7.9 4.0 53 4.3 NNW 22 30 12 16 1010.3 - 0.0
29/01:00am 13.7 8.2 4.0 52 4.4 NNW 22 30 12 16 1010.9 - 0.0
29/12:30am 13.5 8.4 4.1 53 4.3 NNW 20 28 11 15 1011.4 - 0.0
29/12:00am 13.8 7.9 4.1 52 4.4 NNW 24 32 13 17 1011.7 1011.7 0.0
 
Date/Time
EST
Temp
°C
App
Temp
°C
Dew
Point
Rel
Hum
%
Delta-T
°C
Wind Press
QNH
hPa
Press
MSL
hPa
Rain
since 9 am
mm
Dir
 
Spd
km/h
Gust
km/h
Spd
kts
Gust
kts
28/11:30pm 13.2 8.3 4.1 54 4.1 NNW 19 24 10 13 1011.8 - 0.0
28/11:00pm 14.1 8.2 3.8 50 4.7 NNW 24 33 13 18 1011.9 - 0.0
28/10:30pm 13.9 8.1 4.2 52 4.5 NNW 24 32 13 17 1012.1 - 0.0
28/10:00pm 13.9 8.4 3.9 51 4.6 NNW 22 32 12 17 1012.2 - 0.0
28/09:30pm 13.9 8.8 3.9 51 4.6 NW 20 26 11 14 1012.3 - 0.0
28/09:00pm 14.2 8.3 3.9 50 4.7 NNW 24 32 13 17 1012.0 1012.0 0.0
28/08:30pm 14.6 8.3 4.0 49 4.9 NNW 26 35 14 19 1011.7 - 0.0
28/08:00pm 14.8 7.7 3.6 47 5.1 NNW 30 39 16 21 1011.5 - 0.0
28/07:30pm 14.9 8.5 3.4 46 5.2 NNW 26 37 14 20 1011.9 - 0.0
28/07:00pm 15.1 8.8 3.6 46 5.3 NNW 26 41 14 22 1011.8 - 0.0
28/06:30pm 15.4 9.4 3.2 44 5.5 NNW 24 33 13 18 1012.1 - 0.0
28/06:00pm 15.4 9.4 3.2 44 5.6 NNW 24 32 13 17 1012.0 1012.0 0.0
28/05:30pm 15.7 10.1 3.5 44 5.6 NNW 22 33 12 18 1011.4 - 0.0
28/05:00pm 16.1 10.6 3.9 44 5.7 NNW 22 32 12 17 1011.2 - 0.0
28/04:30pm 17.1 12.3 4.4 43 6.0 NNW 19 28 10 15 1011.6 - 0.0
28/04:00pm 17.8 12.0 4.4 41 6.4 NNW 24 33 13 18 1011.6 - 0.0
28/03:30pm 18.3 12.2 4.8 41 6.5 NNW 26 39 14 21 1011.6 - 0.0
28/03:00pm 18.7 12.3 5.2 41 6.6 NNW 28 39 15 21 1011.7 1011.7 0.0
28/02:30pm 18.9 12.1 5.0 40 6.7 NNW 30 41 16 22 1011.9 - 0.0
28/02:00pm 19.0 12.6 5.1 40 6.8 NNW 28 39 15 21 1011.9 - 0.0
28/01:30pm 18.9 12.0 4.7 39 6.8 NNW 30 43 16 23 1012.5 - 0.0
28/01:00pm 19.1 12.3 5.2 40 6.8 NNW 30 41 16 22 1013.0 - 0.0
28/12:30pm 18.4 10.9 4.6 40 6.6 NNW 33 44 18 24 1013.6 - 0.0
28/12:00pm 17.8 9.9 4.4 41 6.4 NNW 35 50 19 27 1014.0 1014.0 0.0
28/11:32am 17.5 9.6 4.5 42 6.2 NNW 35 56 19 30 1014.3 - 0.0
28/11:30am 17.9 10.5 5.2 43 6.1 NNW 33 48 18 26 1014.6 - 0.0
28/11:13am 17.5 10.6 4.8 43 6.1 NNW 30 50 16 27 1014.7 - 0.0

Other Formats:

Comma delimited format used in spreadsheet applications
http://www.bom.gov.au/fwo/IDV60801/IDV60801.94912.axf

JavaScript Object Notation format (JSON) in row-major order
http://www.bom.gov.au/fwo/IDV60801/IDV60801.94912.json